sensor_id;sensor_type;location;lat;lon;timestamp;P1;durP1;ratioP1;P2;durP2;ratioP2
56860;SDS011;42744;51.094;3.490;2022-09-01T00:01:10;1.90;;;1.30;;
56860;SDS011;42744;51.094;3.490;2022-09-01T00:03:43;3.10;;;1.13;;
56860;SDS011;42744;51.094;3.490;2022-09-01T00:06:16;3.10;;;1.57;;
56860;SDS011;42744;51.094;3.490;2022-09-01T00:08:50;3.37;;;1.30;;
56860;SDS011;42744;51.094;3.490;2022-09-01T00:11:18;2.40;;;1.30;;
56860;SDS011;42744;51.094;3.490;2022-09-01T00:13:44;1.80;;;1.17;;
56860;SDS011;42744;51.094;3.490;2022-09-01T00:16:10;6.33;;;1.60;;
56860;SDS011;42744;51.094;3.490;2022-09-01T00:18:41;3.93;;;1.23;;
56860;SDS011;42744;51.094;3.490;2022-09-01T00:21:11;5.77;;;1.33;;
56860;SDS011;42744;51.094;3.490;2022-09-01T00:23:38;2.17;;;1.50;;
56860;SDS011;42744;51.094;3.490;2022-09-01T00:26:04;1.70;;;0.90;;
56860;SDS011;42744;51.094;3.490;2022-09-01T00:28:35;3.03;;;1.30;;
56860;SDS011;42744;51.094;3.490;2022-09-01T00:31:02;2.27;;;1.20;;
56860;SDS011;42744;51.094;3.490;2022-09-01T00:33:31;3.03;;;1.07;;
56860;SDS011;42744;51.094;3.490;2022-09-01T00:35:57;2.13;;;1.53;;
56860;SDS011;42744;51.094;3.490;2022-09-01T00:38:24;4.93;;;1.40;;
56860;SDS011;42744;51.094;3.490;2022-09-01T00:40:50;4.70;;;1.30;;
56860;SDS011;42744;51.094;3.490;2022-09-01T00:43:17;2.70;;;1.17;;
56860;SDS011;42744;51.094;3.490;2022-09-01T00:45:46;4.20;;;1.20;;
56860;SDS011;42744;51.094;3.490;2022-09-01T00:48:19;2.33;;;1.33;;
56860;SDS011;42744;51.094;3.490;2022-09-01T00:50:49;3.77;;;1.20;;
56860;SDS011;42744;51.094;3.490;2022-09-01T00:53:18;5.10;;;1.50;;
56860;SDS011;42744;51.094;3.490;2022-09-01T00:55:44;2.30;;;1.30;;
56860;SDS011;42744;51.094;3.490;2022-09-01T00:58:10;2.17;;;1.17;;
56860;SDS011;42744;51.094;3.490;2022-09-01T01:00:37;1.40;;;1.00;;
56860;SDS011;42744;51.094;3.490;2022-09-01T01:03:12;2.87;;;1.20;;
56860;SDS011;42744;51.094;3.490;2022-09-01T01:05:40;2.70;;;1.30;;
56860;SDS011;42744;51.094;3.490;2022-09-01T01:08:11;4.53;;;1.40;;
56860;SDS011;42744;51.094;3.490;2022-09-01T01:10:38;2.90;;;1.37;;
56860;SDS011;42744;51.094;3.490;2022-09-01T01:13:11;4.33;;;1.20;;
56860;SDS011;42744;51.094;3.490;2022-09-01T01:15:39;2.50;;;1.10;;
56860;SDS011;42744;51.094;3.490;2022-09-01T01:18:17;3.40;;;1.27;;
56860;SDS011;42744;51.094;3.490;2022-09-01T01:20:43;4.57;;;1.40;;
56860;SDS011;42744;51.094;3.490;2022-09-01T01:23:39;2.20;;;1.20;;
56860;SDS011;42744;51.094;3.490;2022-09-01T01:26:22;3.33;;;0.90;;
56860;SDS011;42744;51.094;3.490;2022-09-01T01:28:48;2.43;;;1.03;;
56860;SDS011;42744;51.094;3.490;2022-09-01T01:31:17;2.10;;;1.10;;
56860;SDS011;42744;51.094;3.490;2022-09-01T01:33:45;2.40;;;1.10;;
56860;SDS011;42744;51.094;3.490;2022-09-01T01:38:57;7.53;;;1.40;;
56860;SDS011;42744;51.094;3.490;2022-09-01T01:41:28;1.93;;;1.20;;
56860;SDS011;42744;51.094;3.490;2022-09-01T01:43:57;2.23;;;1.20;;
56860;SDS011;42744;51.094;3.490;2022-09-01T01:46:25;1.67;;;1.47;;
56860;SDS011;42744;51.094;3.490;2022-09-01T01:48:54;5.23;;;1.37;;
56860;SDS011;42744;51.094;3.490;2022-09-01T01:51:21;2.33;;;1.33;;
56860;SDS011;42744;51.094;3.490;2022-09-01T01:53:52;3.63;;;1.00;;
56860;SDS011;42744;51.094;3.490;2022-09-01T01:56:24;3.23;;;1.20;;
56860;SDS011;42744;51.094;3.490;2022-09-01T01:58:53;2.47;;;1.40;;
56860;SDS011;42744;51.094;3.490;2022-09-01T02:01:23;1.73;;;1.10;;
56860;SDS011;42744;51.094;3.490;2022-09-01T02:03:54;4.23;;;1.20;;
56860;SDS011;42744;51.094;3.490;2022-09-01T02:06:22;7.60;;;2.07;;
56860;SDS011;42744;51.094;3.490;2022-09-01T02:08:52;2.80;;;1.43;;
56860;SDS011;42744;51.094;3.490;2022-09-01T02:11:24;2.87;;;1.20;;
56860;SDS011;42744;51.094;3.490;2022-09-01T02:13:52;2.03;;;1.20;;
56860;SDS011;42744;51.094;3.490;2022-09-01T02:16:22;2.97;;;1.27;;
56860;SDS011;42744;51.094;3.490;2022-09-01T02:18:50;3.13;;;1.20;;
56860;SDS011;42744;51.094;3.490;2022-09-01T02:21:19;3.73;;;1.50;;
56860;SDS011;42744;51.094;3.490;2022-09-01T02:23:47;4.47;;;1.20;;
56860;SDS011;42744;51.094;3.490;2022-09-01T02:26:27;4.17;;;1.23;;
56860;SDS011;42744;51.094;3.490;2022-09-01T02:28:57;10.10;;;2.10;;
56860;SDS011;42744;51.094;3.490;2022-09-01T02:31:30;2.70;;;1.30;;
56860;SDS011;42744;51.094;3.490;2022-09-01T02:33:59;3.87;;;1.17;;
56860;SDS011;42744;51.094;3.490;2022-09-01T02:36:26;3.27;;;1.20;;
56860;SDS011;42744;51.094;3.490;2022-09-01T02:38:57;5.03;;;1.37;;
56860;SDS011;42744;51.094;3.490;2022-09-01T02:41:23;3.23;;;1.30;;
56860;SDS011;42744;51.094;3.490;2022-09-01T02:43:53;5.27;;;1.20;;
56860;SDS011;42744;51.094;3.490;2022-09-01T02:46:19;2.57;;;1.17;;
56860;SDS011;42744;51.094;3.490;2022-09-01T02:48:47;4.17;;;1.57;;
56860;SDS011;42744;51.094;3.490;2022-09-01T02:51:17;5.20;;;1.47;;
56860;SDS011;42744;51.094;3.490;2022-09-01T02:53:44;2.60;;;1.30;;
56860;SDS011;42744;51.094;3.490;2022-09-01T02:56:17;2.77;;;1.07;;
56860;SDS011;42744;51.094;3.490;2022-09-01T02:58:48;2.93;;;1.60;;
56860;SDS011;42744;51.094;3.490;2022-09-01T03:01:16;2.40;;;1.27;;
56860;SDS011;42744;51.094;3.490;2022-09-01T03:03:50;2.50;;;1.17;;
56860;SDS011;42744;51.094;3.490;2022-09-01T03:06:18;3.13;;;1.70;;
56860;SDS011;42744;51.094;3.490;2022-09-01T03:08:49;2.13;;;1.30;;
56860;SDS011;42744;51.094;3.490;2022-09-01T03:11:20;3.00;;;1.63;;
56860;SDS011;42744;51.094;3.490;2022-09-01T03:13:49;4.30;;;1.60;;
56860;SDS011;42744;51.094;3.490;2022-09-01T03:16:15;4.50;;;1.97;;
56860;SDS011;42744;51.094;3.490;2022-09-01T03:18:42;1.77;;;1.03;;
56860;SDS011;42744;51.094;3.490;2022-09-01T03:21:08;1.87;;;1.33;;
56860;SDS011;42744;51.094;3.490;2022-09-01T03:23:40;3.70;;;1.37;;
56860;SDS011;42744;51.094;3.490;2022-09-01T03:26:06;3.20;;;1.80;;
56860;SDS011;42744;51.094;3.490;2022-09-01T03:28:32;3.13;;;1.73;;
56860;SDS011;42744;51.094;3.490;2022-09-01T03:30:58;2.30;;;1.33;;
56860;SDS011;42744;51.094;3.490;2022-09-01T03:33:26;2.33;;;1.30;;
56860;SDS011;42744;51.094;3.490;2022-09-01T03:35:52;2.03;;;1.40;;
56860;SDS011;42744;51.094;3.490;2022-09-01T03:38:19;6.40;;;1.43;;
56860;SDS011;42744;51.094;3.490;2022-09-01T03:40:50;2.67;;;1.57;;
56860;SDS011;42744;51.094;3.490;2022-09-01T03:43:27;1.97;;;1.30;;
56860;SDS011;42744;51.094;3.490;2022-09-01T03:45:55;1.83;;;1.40;;
56860;SDS011;42744;51.094;3.490;2022-09-01T03:48:26;3.90;;;1.80;;
56860;SDS011;42744;51.094;3.490;2022-09-01T03:50:54;2.10;;;1.70;;
56860;SDS011;42744;51.094;3.490;2022-09-01T03:53:27;5.57;;;1.60;;
56860;SDS011;42744;51.094;3.490;2022-09-01T03:55:55;4.17;;;1.60;;
56860;SDS011;42744;51.094;3.490;2022-09-01T03:58:22;2.43;;;1.37;;
56860;SDS011;42744;51.094;3.490;2022-09-01T04:00:50;1.83;;;1.60;;
56860;SDS011;42744;51.094;3.490;2022-09-01T04:03:23;3.70;;;1.53;;
56860;SDS011;42744;51.094;3.490;2022-09-01T04:05:53;4.03;;;1.63;;
56860;SDS011;42744;51.094;3.490;2022-09-01T04:08:25;2.80;;;1.67;;
56860;SDS011;42744;51.094;3.490;2022-09-01T04:10:56;3.27;;;1.60;;
56860;SDS011;42744;51.094;3.490;2022-09-01T04:13:29;2.93;;;1.90;;
56860;SDS011;42744;51.094;3.490;2022-09-01T04:16:00;1.80;;;1.57;;
56860;SDS011;42744;51.094;3.490;2022-09-01T04:18:26;5.23;;;1.80;;
56860;SDS011;42744;51.094;3.490;2022-09-01T04:20:55;5.67;;;1.80;;
56860;SDS011;42744;51.094;3.490;2022-09-01T04:23:24;6.10;;;1.77;;
56860;SDS011;42744;51.094;3.490;2022-09-01T04:28:25;3.03;;;1.80;;
56860;SDS011;42744;51.094;3.490;2022-09-01T04:31:02;2.90;;;2.00;;
56860;SDS011;42744;51.094;3.490;2022-09-01T04:33:34;2.60;;;1.93;;
56860;SDS011;42744;51.094;3.490;2022-09-01T04:36:05;4.87;;;2.20;;
56860;SDS011;42744;51.094;3.490;2022-09-01T04:38:40;4.07;;;2.07;;
56860;SDS011;42744;51.094;3.490;2022-09-01T04:41:06;3.13;;;1.90;;
56860;SDS011;42744;51.094;3.490;2022-09-01T04:43:33;2.53;;;1.90;;
56860;SDS011;42744;51.094;3.490;2022-09-01T04:46:01;5.70;;;2.07;;
56860;SDS011;42744;51.094;3.490;2022-09-01T04:48:27;4.30;;;2.30;;
56860;SDS011;42744;51.094;3.490;2022-09-01T04:50:55;4.80;;;2.20;;
56860;SDS011;42744;51.094;3.490;2022-09-01T04:53:22;2.47;;;1.97;;
56860;SDS011;42744;51.094;3.490;2022-09-01T04:55:49;4.73;;;2.27;;
56860;SDS011;42744;51.094;3.490;2022-09-01T04:58:18;4.63;;;2.70;;
56860;SDS011;42744;51.094;3.490;2022-09-01T05:00:47;3.33;;;2.27;;
56860;SDS011;42744;51.094;3.490;2022-09-01T05:03:18;4.17;;;2.70;;
56860;SDS011;42744;51.094;3.490;2022-09-01T05:05:48;8.47;;;2.57;;
56860;SDS011;42744;51.094;3.490;2022-09-01T05:08:16;3.50;;;2.37;;
56860;SDS011;42744;51.094;3.490;2022-09-01T05:10:48;3.90;;;2.57;;
56860;SDS011;42744;51.094;3.490;2022-09-01T05:13:18;7.37;;;2.50;;
56860;SDS011;42744;51.094;3.490;2022-09-01T05:15:57;3.27;;;2.40;;
56860;SDS011;42744;51.094;3.490;2022-09-01T05:18:30;7.77;;;3.10;;
56860;SDS011;42744;51.094;3.490;2022-09-01T05:20:58;3.23;;;2.20;;
56860;SDS011;42744;51.094;3.490;2022-09-01T05:23:34;5.63;;;2.43;;
56860;SDS011;42744;51.094;3.490;2022-09-01T05:26:01;5.93;;;2.90;;
56860;SDS011;42744;51.094;3.490;2022-09-01T05:28:28;4.70;;;2.30;;
56860;SDS011;42744;51.094;3.490;2022-09-01T05:30:55;3.20;;;2.43;;
56860;SDS011;42744;51.094;3.490;2022-09-01T05:33:24;3.77;;;2.43;;
56860;SDS011;42744;51.094;3.490;2022-09-01T05:35:52;6.90;;;3.00;;
56860;SDS011;42744;51.094;3.490;2022-09-01T05:38:20;3.30;;;2.30;;
56860;SDS011;42744;51.094;3.490;2022-09-01T05:40:57;5.70;;;2.73;;
56860;SDS011;42744;51.094;3.490;2022-09-01T05:43:33;6.30;;;2.90;;
56860;SDS011;42744;51.094;3.490;2022-09-01T05:46:00;4.90;;;2.67;;
56860;SDS011;42744;51.094;3.490;2022-09-01T05:48:31;4.33;;;2.47;;
56860;SDS011;42744;51.094;3.490;2022-09-01T05:50:59;6.93;;;2.60;;
56860;SDS011;42744;51.094;3.490;2022-09-01T05:53:25;7.87;;;3.20;;
56860;SDS011;42744;51.094;3.490;2022-09-01T05:55:56;3.07;;;2.70;;
56860;SDS011;42744;51.094;3.490;2022-09-01T05:58:25;4.07;;;3.13;;
56860;SDS011;42744;51.094;3.490;2022-09-01T06:00:53;5.50;;;2.83;;
56860;SDS011;42744;51.094;3.490;2022-09-01T06:03:23;6.97;;;2.80;;
56860;SDS011;42744;51.094;3.490;2022-09-01T06:05:53;5.80;;;3.00;;
56860;SDS011;42744;51.094;3.490;2022-09-01T06:08:21;4.37;;;2.67;;
56860;SDS011;42744;51.094;3.490;2022-09-01T06:10:50;8.97;;;2.60;;
56860;SDS011;42744;51.094;3.490;2022-09-01T06:13:17;11.07;;;3.27;;
56860;SDS011;42744;51.094;3.490;2022-09-01T06:15:48;5.30;;;3.33;;
56860;SDS011;42744;51.094;3.490;2022-09-01T06:18:15;3.73;;;3.20;;
56860;SDS011;42744;51.094;3.490;2022-09-01T06:20:46;5.77;;;3.50;;
56860;SDS011;42744;51.094;3.490;2022-09-01T06:23:14;5.63;;;3.43;;
56860;SDS011;42744;51.094;3.490;2022-09-01T06:25:41;7.27;;;4.30;;
56860;SDS011;42744;51.094;3.490;2022-09-01T06:28:10;6.87;;;4.17;;
56860;SDS011;42744;51.094;3.490;2022-09-01T06:30:37;7.93;;;4.20;;
56860;SDS011;42744;51.094;3.490;2022-09-01T06:33:04;10.03;;;4.27;;
56860;SDS011;42744;51.094;3.490;2022-09-01T06:35:36;7.30;;;4.40;;
56860;SDS011;42744;51.094;3.490;2022-09-01T06:38:03;9.17;;;4.87;;
56860;SDS011;42744;51.094;3.490;2022-09-01T06:40:32;8.70;;;5.20;;
56860;SDS011;42744;51.094;3.490;2022-09-01T06:42:59;6.83;;;5.40;;
56860;SDS011;42744;51.094;3.490;2022-09-01T06:45:40;9.77;;;4.80;;
56860;SDS011;42744;51.094;3.490;2022-09-01T06:48:09;6.60;;;5.07;;
56860;SDS011;42744;51.094;3.490;2022-09-01T06:50:40;8.97;;;4.87;;
56860;SDS011;42744;51.094;3.490;2022-09-01T06:53:07;9.07;;;5.57;;
56860;SDS011;42744;51.094;3.490;2022-09-01T06:55:39;8.10;;;5.17;;
56860;SDS011;42744;51.094;3.490;2022-09-01T06:58:07;8.90;;;5.53;;
56860;SDS011;42744;51.094;3.490;2022-09-01T07:00:36;9.83;;;4.67;;
56860;SDS011;42744;51.094;3.490;2022-09-01T07:03:07;11.73;;;5.30;;
56860;SDS011;42744;51.094;3.490;2022-09-01T07:05:40;6.20;;;4.73;;
56860;SDS011;42744;51.094;3.490;2022-09-01T07:08:09;8.90;;;5.23;;
56860;SDS011;42744;51.094;3.490;2022-09-01T07:10:47;6.17;;;4.87;;
56860;SDS011;42744;51.094;3.490;2022-09-01T07:13:16;7.87;;;5.23;;
56860;SDS011;42744;51.094;3.490;2022-09-01T07:15:50;9.70;;;5.30;;
56860;SDS011;42744;51.094;3.490;2022-09-01T07:18:19;10.63;;;5.70;;
56860;SDS011;42744;51.094;3.490;2022-09-01T07:20:48;7.93;;;4.80;;
56860;SDS011;42744;51.094;3.490;2022-09-01T07:23:15;11.13;;;5.50;;
56860;SDS011;42744;51.094;3.490;2022-09-01T07:25:43;6.83;;;5.20;;
56860;SDS011;42744;51.094;3.490;2022-09-01T07:28:14;7.17;;;4.77;;
56860;SDS011;42744;51.094;3.490;2022-09-01T07:30:42;9.60;;;5.00;;
56860;SDS011;42744;51.094;3.490;2022-09-01T07:33:16;10.57;;;5.70;;
56860;SDS011;42744;51.094;3.490;2022-09-01T07:35:49;10.67;;;5.63;;
56860;SDS011;42744;51.094;3.490;2022-09-01T07:38:20;6.70;;;5.30;;
56860;SDS011;42744;51.094;3.490;2022-09-01T07:40:46;7.47;;;5.07;;
56860;SDS011;42744;51.094;3.490;2022-09-01T07:43:17;7.40;;;5.17;;
56860;SDS011;42744;51.094;3.490;2022-09-01T07:45:53;9.10;;;6.23;;
56860;SDS011;42744;51.094;3.490;2022-09-01T07:48:24;9.73;;;5.87;;
56860;SDS011;42744;51.094;3.490;2022-09-01T07:50:53;10.13;;;5.37;;
56860;SDS011;42744;51.094;3.490;2022-09-01T07:53:23;8.10;;;6.30;;
56860;SDS011;42744;51.094;3.490;2022-09-01T07:55:54;9.03;;;5.63;;
56860;SDS011;42744;51.094;3.490;2022-09-01T07:58:22;10.87;;;5.70;;
56860;SDS011;42744;51.094;3.490;2022-09-01T08:00:51;10.20;;;6.40;;
56860;SDS011;42744;51.094;3.490;2022-09-01T08:03:22;14.33;;;7.23;;
56860;SDS011;42744;51.094;3.490;2022-09-01T08:05:49;13.80;;;6.50;;
56860;SDS011;42744;51.094;3.490;2022-09-01T08:08:22;17.03;;;6.47;;
56860;SDS011;42744;51.094;3.490;2022-09-01T08:10:49;12.43;;;6.53;;
56860;SDS011;42744;51.094;3.490;2022-09-01T08:13:16;10.53;;;6.50;;
56860;SDS011;42744;51.094;3.490;2022-09-01T08:15:43;8.27;;;6.10;;
56860;SDS011;42744;51.094;3.490;2022-09-01T08:18:09;7.97;;;5.80;;
56860;SDS011;42744;51.094;3.490;2022-09-01T08:20:37;12.07;;;6.47;;
56860;SDS011;42744;51.094;3.490;2022-09-01T08:23:11;6.60;;;5.80;;
56860;SDS011;42744;51.094;3.490;2022-09-01T08:25:40;8.53;;;5.97;;
56860;SDS011;42744;51.094;3.490;2022-09-01T08:28:08;8.93;;;5.67;;
56860;SDS011;42744;51.094;3.490;2022-09-01T08:30:37;8.77;;;6.70;;
56860;SDS011;42744;51.094;3.490;2022-09-01T08:33:05;10.03;;;6.13;;
56860;SDS011;42744;51.094;3.490;2022-09-01T08:35:31;8.00;;;6.00;;
56860;SDS011;42744;51.094;3.490;2022-09-01T08:37:57;9.87;;;6.37;;
56860;SDS011;42744;51.094;3.490;2022-09-01T08:40:24;11.67;;;6.27;;
56860;SDS011;42744;51.094;3.490;2022-09-01T08:45:26;15.00;;;6.87;;
56860;SDS011;42744;51.094;3.490;2022-09-01T08:47:55;10.57;;;6.60;;
56860;SDS011;42744;51.094;3.490;2022-09-01T08:50:26;8.40;;;6.00;;
56860;SDS011;42744;51.094;3.490;2022-09-01T08:52:59;10.40;;;6.73;;
56860;SDS011;42744;51.094;3.490;2022-09-01T08:55:34;11.27;;;7.00;;
56860;SDS011;42744;51.094;3.490;2022-09-01T08:58:04;12.60;;;6.40;;
56860;SDS011;42744;51.094;3.490;2022-09-01T09:00:38;10.17;;;5.80;;
56860;SDS011;42744;51.094;3.490;2022-09-01T09:05:42;6.97;;;6.07;;
56860;SDS011;42744;51.094;3.490;2022-09-01T09:08:36;10.60;;;5.80;;
56860;SDS011;42744;51.094;3.490;2022-09-01T09:16:38;7.63;;;5.70;;
56860;SDS011;42744;51.094;3.490;2022-09-01T09:19:18;10.27;;;5.30;;
56860;SDS011;42744;51.094;3.490;2022-09-01T09:21:48;8.70;;;5.50;;
56860;SDS011;42744;51.094;3.490;2022-09-01T09:27:19;12.10;;;4.80;;
56860;SDS011;42744;51.094;3.490;2022-09-01T09:29:51;5.62;;;5.00;;
56860;SDS011;42744;51.094;3.490;2022-09-01T09:32:22;6.10;;;4.32;;
56860;SDS011;42744;51.094;3.490;2022-09-01T09:34:50;7.20;;;4.62;;
56860;SDS011;42744;51.094;3.490;2022-09-01T09:42:37;7.37;;;4.45;;
56860;SDS011;42744;51.094;3.490;2022-09-01T09:45:05;11.48;;;5.10;;
56860;SDS011;42744;51.094;3.490;2022-09-01T09:47:45;6.70;;;4.20;;
56860;SDS011;42744;51.094;3.490;2022-09-01T09:52:47;7.25;;;5.30;;
56860;SDS011;42744;51.094;3.490;2022-09-01T09:55:25;7.75;;;4.40;;
56860;SDS011;42744;51.094;3.490;2022-09-01T09:57:54;9.68;;;4.75;;
56860;SDS011;42744;51.094;3.490;2022-09-01T10:00:25;6.95;;;4.07;;
56860;SDS011;42744;51.094;3.490;2022-09-01T10:02:59;10.18;;;4.75;;
56860;SDS011;42744;51.094;3.490;2022-09-01T10:08:05;6.65;;;4.05;;
56860;SDS011;42744;51.094;3.490;2022-09-01T10:10:38;5.07;;;3.53;;
56860;SDS011;42744;51.094;3.490;2022-09-01T10:13:08;5.72;;;4.30;;
56860;SDS011;42744;51.094;3.490;2022-09-01T10:15:37;8.38;;;4.57;;
56860;SDS011;42744;51.094;3.490;2022-09-01T10:18:07;5.47;;;4.40;;
56860;SDS011;42744;51.094;3.490;2022-09-01T10:20:40;6.72;;;4.12;;
56860;SDS011;42744;51.094;3.490;2022-09-01T10:23:24;6.43;;;3.75;;
56860;SDS011;42744;51.094;3.490;2022-09-01T10:25:54;6.82;;;3.90;;
56860;SDS011;42744;51.094;3.490;2022-09-01T10:28:47;11.30;;;4.20;;
56860;SDS011;42744;51.094;3.490;2022-09-01T10:31:30;8.52;;;3.85;;
56860;SDS011;42744;51.094;3.490;2022-09-01T10:33:58;8.05;;;3.40;;
56860;SDS011;42744;51.094;3.490;2022-09-01T10:36:27;8.05;;;3.80;;
56860;SDS011;42744;51.094;3.490;2022-09-01T10:38:55;4.82;;;3.60;;
56860;SDS011;42744;51.094;3.490;2022-09-01T10:44:28;7.72;;;3.83;;
56860;SDS011;42744;51.094;3.490;2022-09-01T10:55:08;7.30;;;2.87;;
56860;SDS011;42744;51.094;3.490;2022-09-01T11:03:00;3.25;;;2.40;;
56860;SDS011;42744;51.094;3.490;2022-09-01T11:10:56;3.55;;;2.60;;
56860;SDS011;42744;51.094;3.490;2022-09-01T11:16:30;3.28;;;2.55;;
56860;SDS011;42744;51.094;3.490;2022-09-01T11:24:49;3.97;;;2.85;;
56860;SDS011;42744;51.094;3.490;2022-09-01T11:30:32;5.03;;;2.70;;
56860;SDS011;42744;51.094;3.490;2022-09-01T11:36:01;3.78;;;2.50;;
56860;SDS011;42744;51.094;3.490;2022-09-01T11:38:45;6.85;;;3.03;;
56860;SDS011;42744;51.094;3.490;2022-09-01T11:41:27;4.55;;;2.85;;
56860;SDS011;42744;51.094;3.490;2022-09-01T11:44:01;2.47;;;2.10;;
56860;SDS011;42744;51.094;3.490;2022-09-01T11:46:34;3.80;;;2.47;;
56860;SDS011;42744;51.094;3.490;2022-09-01T11:49:05;6.43;;;2.40;;
56860;SDS011;42744;51.094;3.490;2022-09-01T11:51:49;4.22;;;3.05;;
56860;SDS011;42744;51.094;3.490;2022-09-01T11:54:16;3.35;;;2.25;;
56860;SDS011;42744;51.094;3.490;2022-09-01T11:56:41;4.65;;;2.28;;
56860;SDS011;42744;51.094;3.490;2022-09-01T11:59:07;3.55;;;2.28;;
56860;SDS011;42744;51.094;3.490;2022-09-01T12:01:37;3.92;;;2.42;;
56860;SDS011;42744;51.094;3.490;2022-09-01T12:04:21;4.72;;;2.17;;
56860;SDS011;42744;51.094;3.490;2022-09-01T12:06:54;2.05;;;1.85;;
56860;SDS011;42744;51.094;3.490;2022-09-01T12:09:44;2.62;;;1.60;;
56860;SDS011;42744;51.094;3.490;2022-09-01T12:12:29;4.12;;;2.30;;
56860;SDS011;42744;51.094;3.490;2022-09-01T12:14:57;3.33;;;2.22;;
56860;SDS011;42744;51.094;3.490;2022-09-01T12:17:24;2.78;;;2.05;;
56860;SDS011;42744;51.094;3.490;2022-09-01T12:19:50;2.33;;;2.12;;
56860;SDS011;42744;51.094;3.490;2022-09-01T12:22:17;4.22;;;2.40;;
56860;SDS011;42744;51.094;3.490;2022-09-01T12:24:46;3.58;;;2.55;;
56860;SDS011;42744;51.094;3.490;2022-09-01T12:27:14;5.28;;;2.42;;
56860;SDS011;42744;51.094;3.490;2022-09-01T12:29:41;3.08;;;1.83;;
56860;SDS011;42744;51.094;3.490;2022-09-01T12:32:07;5.47;;;2.00;;
56860;SDS011;42744;51.094;3.490;2022-09-01T12:42:21;4.15;;;2.28;;
56860;SDS011;42744;51.094;3.490;2022-09-01T12:44:50;6.85;;;2.35;;
56860;SDS011;42744;51.094;3.490;2022-09-01T12:49:58;4.68;;;2.25;;
56860;SDS011;42744;51.094;3.490;2022-09-01T12:52:26;3.83;;;2.37;;
56860;SDS011;42744;51.094;3.490;2022-09-01T13:05:18;3.72;;;2.60;;
56860;SDS011;42744;51.094;3.490;2022-09-01T13:07:47;2.08;;;1.65;;
56860;SDS011;42744;51.094;3.490;2022-09-01T13:10:13;4.07;;;1.83;;
56860;SDS011;42744;51.094;3.490;2022-09-01T13:12:46;3.62;;;2.00;;
56860;SDS011;42744;51.094;3.490;2022-09-01T13:15:13;2.12;;;1.70;;
56860;SDS011;42744;51.094;3.490;2022-09-01T13:17:39;3.08;;;1.90;;
56860;SDS011;42744;51.094;3.490;2022-09-01T13:20:05;4.95;;;1.75;;
56860;SDS011;42744;51.094;3.490;2022-09-01T13:22:33;2.65;;;2.10;;
56860;SDS011;42744;51.094;3.490;2022-09-01T13:24:59;13.60;;;2.80;;
56860;SDS011;42744;51.094;3.490;2022-09-01T13:27:26;5.20;;;2.00;;
56860;SDS011;42744;51.094;3.490;2022-09-01T13:29:52;4.85;;;2.17;;
56860;SDS011;42744;51.094;3.490;2022-09-01T13:32:19;3.50;;;2.45;;
56860;SDS011;42744;51.094;3.490;2022-09-01T13:34:47;2.03;;;1.65;;
56860;SDS011;42744;51.094;3.490;2022-09-01T13:37:17;3.15;;;1.90;;
56860;SDS011;42744;51.094;3.490;2022-09-01T13:39:44;3.70;;;1.83;;
56860;SDS011;42744;51.094;3.490;2022-09-01T13:42:11;3.03;;;1.77;;
56860;SDS011;42744;51.094;3.490;2022-09-01T13:44:38;2.92;;;1.70;;
56860;SDS011;42744;51.094;3.490;2022-09-01T13:47:05;7.28;;;1.80;;
56860;SDS011;42744;51.094;3.490;2022-09-01T13:49:31;2.45;;;1.60;;
56860;SDS011;42744;51.094;3.490;2022-09-01T13:51:57;6.20;;;2.20;;
56860;SDS011;42744;51.094;3.490;2022-09-01T13:54:23;3.08;;;1.77;;
56860;SDS011;42744;51.094;3.490;2022-09-01T13:56:49;2.65;;;1.77;;
56860;SDS011;42744;51.094;3.490;2022-09-01T13:59:16;2.95;;;1.87;;
56860;SDS011;42744;51.094;3.490;2022-09-01T14:01:42;3.03;;;1.60;;
56860;SDS011;42744;51.094;3.490;2022-09-01T14:04:08;3.45;;;1.98;;
56860;SDS011;42744;51.094;3.490;2022-09-01T14:06:41;3.17;;;1.42;;
56860;SDS011;42744;51.094;3.490;2022-09-01T14:09:09;4.32;;;1.80;;
56860;SDS011;42744;51.094;3.490;2022-09-01T14:11:37;3.80;;;2.03;;
56860;SDS011;42744;51.094;3.490;2022-09-01T14:14:03;5.00;;;1.70;;
56860;SDS011;42744;51.094;3.490;2022-09-01T14:16:29;2.95;;;1.37;;
56860;SDS011;42744;51.094;3.490;2022-09-01T14:18:55;3.03;;;1.77;;
56860;SDS011;42744;51.094;3.490;2022-09-01T14:21:23;2.45;;;1.37;;
56860;SDS011;42744;51.094;3.490;2022-09-01T14:23:50;5.25;;;1.80;;
56860;SDS011;42744;51.094;3.490;2022-09-01T14:26:17;4.82;;;1.92;;
56860;SDS011;42744;51.094;3.490;2022-09-01T14:28:43;4.68;;;1.60;;
56860;SDS011;42744;51.094;3.490;2022-09-01T14:31:14;1.90;;;1.70;;
56860;SDS011;42744;51.094;3.490;2022-09-01T14:33:42;2.03;;;1.80;;
56860;SDS011;42744;51.094;3.490;2022-09-01T14:36:15;3.62;;;1.58;;
56860;SDS011;42744;51.094;3.490;2022-09-01T14:38:44;10.38;;;1.92;;
56860;SDS011;42744;51.094;3.490;2022-09-01T14:41:13;3.70;;;1.52;;
56860;SDS011;42744;51.094;3.490;2022-09-01T14:43:41;6.75;;;1.70;;
56860;SDS011;42744;51.094;3.490;2022-09-01T14:46:10;2.78;;;1.55;;
56860;SDS011;42744;51.094;3.490;2022-09-01T14:48:37;3.25;;;1.48;;
56860;SDS011;42744;51.094;3.490;2022-09-01T14:51:04;4.95;;;1.73;;
56860;SDS011;42744;51.094;3.490;2022-09-01T14:53:31;2.25;;;1.33;;
56860;SDS011;42744;51.094;3.490;2022-09-01T14:55:58;4.12;;;1.67;;
56860;SDS011;42744;51.094;3.490;2022-09-01T14:58:25;3.03;;;1.50;;
56860;SDS011;42744;51.094;3.490;2022-09-01T15:00:53;2.53;;;1.30;;
56860;SDS011;42744;51.094;3.490;2022-09-01T15:03:23;3.45;;;1.48;;
56860;SDS011;42744;51.094;3.490;2022-09-01T15:05:51;5.47;;;2.45;;
56860;SDS011;42744;51.094;3.490;2022-09-01T15:08:20;3.95;;;1.60;;
56860;SDS011;42744;51.094;3.490;2022-09-01T15:10:48;4.28;;;1.60;;
56860;SDS011;42744;51.094;3.490;2022-09-01T15:13:14;6.90;;;2.08;;
56860;SDS011;42744;51.094;3.490;2022-09-01T15:15:40;4.12;;;1.67;;
56860;SDS011;42744;51.094;3.490;2022-09-01T15:18:06;1.65;;;1.55;;
56860;SDS011;42744;51.094;3.490;2022-09-01T15:20:32;3.47;;;1.75;;
56860;SDS011;42744;51.094;3.490;2022-09-01T15:23:21;1.50;;;1.40;;
56860;SDS011;42744;51.094;3.490;2022-09-01T15:25:49;6.68;;;1.83;;
56860;SDS011;42744;51.094;3.490;2022-09-01T15:28:18;3.60;;;1.77;;
56860;SDS011;42744;51.094;3.490;2022-09-01T15:30:45;7.35;;;2.37;;
56860;SDS011;42744;51.094;3.490;2022-09-01T15:33:11;2.12;;;1.60;;
56860;SDS011;42744;51.094;3.490;2022-09-01T15:35:37;4.72;;;2.00;;
56860;SDS011;42744;51.094;3.490;2022-09-01T15:38:03;2.25;;;1.65;;
56860;SDS011;42744;51.094;3.490;2022-09-01T15:40:31;3.30;;;1.83;;
56860;SDS011;42744;51.094;3.490;2022-09-01T15:42:58;3.72;;;2.00;;
56860;SDS011;42744;51.094;3.490;2022-09-01T15:45:26;5.43;;;1.90;;
56860;SDS011;42744;51.094;3.490;2022-09-01T15:47:53;7.28;;;2.10;;
56860;SDS011;42744;51.094;3.490;2022-09-01T15:50:21;3.95;;;1.70;;
56860;SDS011;42744;51.094;3.490;2022-09-01T15:52:59;10.77;;;2.58;;
56860;SDS011;42744;51.094;3.490;2022-09-01T15:55:28;7.75;;;2.58;;
56860;SDS011;42744;51.094;3.490;2022-09-01T15:57:56;6.37;;;2.37;;
56860;SDS011;42744;51.094;3.490;2022-09-01T16:00:24;5.25;;;2.10;;
56860;SDS011;42744;51.094;3.490;2022-09-01T16:02:51;5.32;;;2.28;;
56860;SDS011;42744;51.094;3.490;2022-09-01T16:05:19;7.55;;;2.17;;
56860;SDS011;42744;51.094;3.490;2022-09-01T16:07:45;7.20;;;2.25;;
56860;SDS011;42744;51.094;3.490;2022-09-01T16:10:11;5.90;;;2.58;;
56860;SDS011;42744;51.094;3.490;2022-09-01T16:12:39;6.20;;;2.10;;
56860;SDS011;42744;51.094;3.490;2022-09-01T16:15:09;2.80;;;1.90;;
56860;SDS011;42744;51.094;3.490;2022-09-01T16:17:47;5.62;;;2.65;;
56860;SDS011;42744;51.094;3.490;2022-09-01T16:23:48;3.05;;;2.08;;
56860;SDS011;42744;51.094;3.490;2022-09-01T16:26:22;10.93;;;2.45;;
56860;SDS011;42744;51.094;3.490;2022-09-01T16:28:50;4.72;;;2.90;;
56860;SDS011;42744;51.094;3.490;2022-09-01T16:31:23;5.10;;;2.33;;